createdAt,value
2023-09-08T00:00:28.548Z,63.20
2023-09-08T00:02:55.413Z,63.20
2023-09-08T00:05:22.285Z,63.50
2023-09-08T00:08:44.241Z,63.50
2023-09-08T00:11:11.110Z,64.10
2023-09-08T00:13:38.374Z,64.80
2023-09-08T00:16:05.322Z,65.40
2023-09-08T00:18:32.404Z,65.50
2023-09-08T00:20:59.640Z,65.60
2023-09-08T00:23:28.341Z,66.00
2023-09-08T00:25:55.431Z,66.20
2023-09-08T00:28:22.287Z,66.40
2023-09-08T00:30:49.104Z,66.20
2023-09-08T00:33:16.078Z,66.90
2023-09-08T00:35:46.336Z,67.80
2023-09-08T00:38:13.175Z,68.70
2023-09-08T00:40:40.031Z,69.50
2023-09-08T00:43:06.816Z,70.50
2023-09-08T00:45:39.714Z,70.70
2023-09-08T00:48:07.078Z,70.70
2023-09-08T00:50:35.343Z,71.10
2023-09-08T00:53:02.517Z,71.00
2023-09-08T00:55:29.586Z,70.90
2023-09-08T00:57:56.668Z,70.40
2023-09-08T01:00:23.543Z,70.40
2023-09-08T01:02:50.438Z,69.80
2023-09-08T01:05:17.634Z,70.90
2023-09-08T01:07:46.021Z,71.80
2023-09-08T01:10:13.284Z,72.30
2023-09-08T01:12:40.777Z,72.20
2023-09-08T01:15:08.760Z,71.80
2023-09-08T01:17:35.824Z,71.70
2023-09-08T01:20:08.729Z,72.00
2023-09-08T01:23:03.963Z,71.90
2023-09-08T01:25:32.639Z,72.90
2023-09-08T01:28:02.550Z,74.10
2023-09-08T01:30:33.822Z,74.40
2023-09-08T01:33:01.206Z,74.10
2023-09-08T01:35:28.571Z,74.30
2023-09-08T01:37:55.338Z,73.50
2023-09-08T01:40:22.881Z,73.60
2023-09-08T01:42:52.753Z,73.80
2023-09-08T01:45:19.736Z,74.30
2023-09-08T01:47:46.625Z,75.10
2023-09-08T01:50:13.565Z,75.20
2023-09-08T01:52:40.352Z,75.60
2023-09-08T01:55:08.860Z,75.50
2023-09-08T01:57:35.926Z,75.70
2023-09-08T02:06:35.514Z,74.90
2023-09-08T02:09:02.385Z,74.60
2023-09-08T02:11:29.302Z,74.70
2023-09-08T02:14:01.879Z,73.90
2023-09-08T02:16:29.746Z,74.50
2023-09-08T02:18:56.740Z,73.30
2023-09-08T02:21:23.672Z,72.50
2023-09-08T02:23:50.585Z,71.60
2023-09-08T02:26:17.533Z,71.50
2023-09-08T02:28:44.431Z,72.60
2023-09-08T02:31:11.803Z,72.90
2023-09-08T02:33:38.711Z,73.50
2023-09-08T02:36:07.091Z,73.40
2023-09-08T02:38:36.561Z,73.60
2023-09-08T02:41:03.624Z,73.50
2023-09-08T02:43:31.624Z,73.30
2023-09-08T02:45:59.102Z,73.80
2023-09-08T02:48:26.510Z,74.80
2023-09-08T02:51:10.332Z,74.90
2023-09-08T02:53:37.245Z,75.30
2023-09-08T02:56:06.639Z,76.10
2023-09-08T02:58:36.554Z,76.40
2023-09-08T03:01:17.653Z,76.40
2023-09-08T03:03:45.154Z,76.20
2023-09-08T03:06:12.811Z,75.70
2023-09-08T03:08:39.828Z,75.70
2023-09-08T03:11:07.116Z,76.10
2023-09-08T03:13:37.764Z,75.80
2023-09-08T03:16:08.964Z,75.70
2023-09-08T03:18:38.071Z,76.40
2023-09-08T03:21:10.749Z,76.10
2023-09-08T03:23:42.518Z,75.60
2023-09-08T03:26:10.286Z,75.20
2023-09-08T03:28:38.831Z,76.50
2023-09-08T03:31:07.194Z,76.50
2023-09-08T03:33:34.490Z,76.80
2023-09-08T03:36:02.191Z,76.40
2023-09-08T03:38:29.209Z,75.90
2023-09-08T03:40:56.210Z,75.60
2023-09-08T03:43:23.302Z,75.00
2023-09-08T03:45:50.308Z,74.60
2023-09-08T03:48:17.407Z,75.50
2023-09-08T03:50:46.618Z,75.90
2023-09-08T03:53:14.366Z,75.80
2023-09-08T03:55:41.514Z,76.60
2023-09-08T03:58:08.458Z,76.70
2023-09-08T04:00:36.537Z,76.70
2023-09-08T04:03:03.887Z,76.70
2023-09-08T04:05:30.968Z,76.10
2023-09-08T04:07:57.907Z,77.10
2023-09-08T04:10:24.934Z,77.50
2023-09-08T04:12:55.844Z,77.20
2023-09-08T04:15:23.121Z,76.80
2023-09-08T04:17:50.141Z,76.90
2023-09-08T04:20:17.586Z,77.30
2023-09-08T04:22:44.684Z,76.80
2023-09-08T04:25:12.660Z,77.40
2023-09-08T04:27:39.731Z,78.40
2023-09-08T04:30:08.011Z,78.60
2023-09-08T04:32:35.183Z,78.40
2023-09-08T04:35:02.363Z,78.70
2023-09-08T04:37:29.260Z,79.40
2023-09-08T04:39:56.213Z,79.30
2023-09-08T04:42:24.394Z,78.70
2023-09-08T04:44:51.364Z,76.90
2023-09-08T04:47:18.315Z,76.50
2023-09-08T04:49:45.460Z,76.50
2023-09-08T04:52:12.685Z,76.40
2023-09-08T04:54:40.572Z,75.70
2023-09-08T04:57:20.236Z,75.40
2023-09-08T04:59:50.599Z,75.30
2023-09-08T05:02:19.576Z,74.60
2023-09-08T05:04:46.722Z,74.40
2023-09-08T05:07:14.787Z,73.90
2023-09-08T05:09:42.121Z,73.10
2023-09-08T05:12:09.209Z,73.80
2023-09-08T05:14:36.189Z,75.00
2023-09-08T05:17:03.245Z,75.20
2023-09-08T05:19:30.473Z,75.20
2023-09-08T05:21:57.660Z,75.60
2023-09-08T05:24:26.958Z,76.10
2023-09-08T05:26:54.521Z,76.70
2023-09-08T05:29:21.635Z,77.30
2023-09-08T05:31:48.655Z,76.50
2023-09-08T05:34:15.751Z,77.10
2023-09-08T05:36:43.789Z,77.30
2023-09-08T05:39:11.986Z,77.00
2023-09-08T05:41:38.959Z,75.90
2023-09-08T05:44:06.238Z,75.40
2023-09-08T05:46:33.719Z,75.50
2023-09-08T05:49:00.810Z,75.80
2023-09-08T05:51:27.987Z,74.90
2023-09-08T05:53:55.063Z,74.80
2023-09-08T05:56:22.321Z,74.90
2023-09-08T05:58:52.217Z,74.70
2023-09-08T06:01:21.679Z,74.30
2023-09-08T06:06:16.729Z,74.40
2023-09-08T06:08:43.818Z,74.40
2023-09-08T06:11:10.935Z,75.00
2023-09-08T06:13:37.957Z,74.80
2023-09-08T06:16:05.165Z,74.80
2023-09-08T06:18:32.798Z,73.20
2023-09-08T06:21:00.197Z,71.70
2023-09-08T06:23:27.205Z,70.70
2023-09-08T06:26:01.342Z,69.40
2023-09-08T06:28:29.070Z,68.50
2023-09-08T06:30:59.602Z,67.80
2023-09-08T06:33:26.747Z,63.80
2023-09-08T06:35:55.177Z,62.00
2023-09-08T06:38:22.267Z,60.40
2023-09-08T06:40:49.470Z,59.60
2023-09-08T06:43:16.661Z,57.50
2023-09-08T06:45:43.702Z,56.10
2023-09-08T06:48:10.778Z,55.10
2023-09-08T06:50:43.199Z,54.00
2023-09-08T06:53:10.487Z,54.00
2023-09-08T06:55:37.295Z,51.70
2023-09-08T06:58:04.753Z,49.90
2023-09-08T07:00:31.974Z,50.80
2023-09-08T07:02:58.967Z,49.90
2023-09-08T07:05:26.015Z,48.40
2023-09-08T07:07:52.971Z,48.00
2023-09-08T07:10:21.445Z,46.20
2023-09-08T07:12:49.448Z,45.60
2023-09-08T07:15:16.513Z,44.70
2023-09-08T07:17:46.661Z,43.40
2023-09-08T07:20:13.646Z,42.80
2023-09-08T07:22:41.006Z,43.10
2023-09-08T07:25:08.691Z,42.50
2023-09-08T07:27:36.026Z,42.40
2023-09-08T07:30:03.499Z,42.00
2023-09-08T07:32:30.738Z,41.30
2023-09-08T07:34:58.119Z,41.30
2023-09-08T07:37:25.667Z,40.40
2023-09-08T07:39:53.074Z,40.50
2023-09-08T07:42:20.442Z,39.10
2023-09-08T07:44:47.792Z,39.30
2023-09-08T07:47:14.803Z,39.30
2023-09-08T07:49:47.945Z,39.10
2023-09-08T07:52:15.110Z,38.70
2023-09-08T07:54:42.170Z,38.40
2023-09-08T07:57:09.180Z,38.70
2023-09-08T07:59:38.069Z,38.60
2023-09-08T08:02:05.575Z,37.20
2023-09-08T08:04:32.634Z,36.20
2023-09-08T08:06:59.717Z,38.80
2023-09-08T08:09:27.909Z,37.90
2023-09-08T08:11:55.019Z,36.80
2023-09-08T08:14:22.225Z,36.10
2023-09-08T08:16:49.187Z,36.20
2023-09-08T08:19:16.224Z,35.30
2023-09-08T08:21:43.712Z,35.10
2023-09-08T08:24:11.505Z,35.20
2023-09-08T08:26:55.167Z,34.80
2023-09-08T08:29:22.206Z,34.00
2023-09-08T08:31:49.644Z,33.90
2023-09-08T08:34:17.231Z,34.60
2023-09-08T08:36:44.276Z,35.60
2023-09-08T08:39:12.250Z,35.90
2023-09-08T08:41:40.801Z,36.90
2023-09-08T08:44:09.230Z,35.60
2023-09-08T08:46:38.473Z,35.80
2023-09-08T08:49:06.072Z,34.90
2023-09-08T08:51:33.998Z,34.50
2023-09-08T08:54:05.514Z,34.60
2023-09-08T08:56:34.018Z,33.70
2023-09-08T08:59:03.112Z,31.30
2023-09-08T09:01:30.854Z,31.20
2023-09-08T09:03:58.689Z,31.50
2023-09-08T09:06:25.925Z,32.10
2023-09-08T09:08:52.844Z,31.30
2023-09-08T09:11:20.072Z,31.80
2023-09-08T09:13:46.942Z,31.30
2023-09-08T09:16:14.346Z,30.90
2023-09-08T09:19:10.607Z,30.10
2023-09-08T09:21:43.266Z,30.30
2023-09-08T09:24:20.976Z,31.00
2023-09-08T09:26:54.262Z,30.10
2023-09-08T09:29:21.586Z,31.00
2023-09-08T09:31:54.379Z,33.00
2023-09-08T09:36:55.043Z,33.20
2023-09-08T09:39:23.326Z,33.20
2023-09-08T09:41:54.063Z,33.00
2023-09-08T09:44:22.588Z,32.90
2023-09-08T09:46:52.427Z,32.20
2023-09-08T09:49:20.533Z,32.70
2023-09-08T09:51:51.980Z,32.20
2023-09-08T09:54:19.258Z,30.00
2023-09-08T09:56:51.013Z,30.30
2023-09-08T09:59:19.325Z,30.20
2023-09-08T10:01:47.319Z,29.40
2023-09-08T10:04:16.838Z,28.70
2023-09-08T10:06:46.263Z,28.90
2023-09-08T10:09:14.918Z,28.80
2023-09-08T10:11:51.258Z,29.20
2023-09-08T10:14:19.353Z,30.00
2023-09-08T10:16:50.712Z,29.30
2023-09-08T10:19:18.988Z,29.10
2023-09-08T10:21:56.676Z,28.10
2023-09-08T10:24:27.488Z,28.00
2023-09-08T10:27:06.092Z,28.30
2023-09-08T10:29:35.632Z,27.50
2023-09-08T10:32:03.832Z,28.40
2023-09-08T10:34:33.940Z,28.80
2023-09-08T10:37:01.124Z,28.60
2023-09-08T10:39:40.455Z,29.20
2023-09-08T10:42:20.476Z,29.20
2023-09-08T10:44:51.230Z,29.30
2023-09-08T10:47:27.512Z,29.10
2023-09-08T10:50:00.371Z,29.70
2023-09-08T10:52:28.876Z,29.50
2023-09-08T10:54:57.334Z,29.80
2023-09-08T10:57:26.425Z,29.30
2023-09-08T11:00:00.931Z,30.00
2023-09-08T11:02:41.806Z,30.60
2023-09-08T11:05:11.423Z,30.90
2023-09-08T11:07:39.519Z,31.40
2023-09-08T11:10:07.688Z,31.60
2023-09-08T11:12:35.097Z,32.30
2023-09-08T11:15:08.764Z,31.40
2023-09-08T11:17:37.611Z,31.80
2023-09-08T11:20:10.283Z,32.20
2023-09-08T11:22:42.134Z,32.50
2023-09-08T11:25:12.255Z,32.50
2023-09-08T11:27:41.129Z,32.70
2023-09-08T11:30:09.549Z,33.50
2023-09-08T11:32:37.319Z,33.80
2023-09-08T11:35:09.996Z,33.70
2023-09-08T11:37:42.508Z,35.40
2023-09-08T11:40:13.900Z,36.10
2023-09-08T11:42:45.703Z,35.50
2023-09-08T11:45:19.450Z,34.90
2023-09-08T11:47:46.696Z,35.10
2023-09-08T11:50:17.014Z,36.10
2023-09-08T11:52:50.299Z,36.10
2023-09-08T11:55:18.158Z,36.50
2023-09-08T11:57:48.425Z,36.50
2023-09-08T12:00:18.665Z,36.70
2023-09-08T12:02:46.970Z,37.40
2023-09-08T12:05:21.243Z,37.10
2023-09-08T12:07:48.894Z,37.20
2023-09-08T12:10:16.044Z,37.50
2023-09-08T12:12:47.762Z,37.50
2023-09-08T12:15:33.087Z,37.40
2023-09-08T12:18:00.932Z,37.10
2023-09-08T12:20:28.201Z,37.30
2023-09-08T12:22:55.258Z,37.00
2023-09-08T12:25:22.610Z,36.40
2023-09-08T12:27:53.001Z,35.90
2023-09-08T12:30:22.692Z,36.60
2023-09-08T12:32:50.518Z,36.40
2023-09-08T12:35:26.316Z,36.40
2023-09-08T12:38:06.933Z,37.30
2023-09-08T12:40:38.568Z,35.80
2023-09-08T12:43:14.079Z,35.70
2023-09-08T12:45:53.503Z,35.60
2023-09-08T12:48:20.414Z,36.20
2023-09-08T12:50:49.280Z,36.10
2023-09-08T12:53:19.803Z,36.30
2023-09-08T12:55:47.707Z,36.50
2023-09-08T12:58:14.826Z,37.20
2023-09-08T13:00:53.681Z,36.50
2023-09-08T13:03:20.723Z,36.10
2023-09-08T13:05:47.682Z,35.80
2023-09-08T13:08:16.661Z,35.40
2023-09-08T13:10:46.217Z,35.60
2023-09-08T13:13:13.170Z,35.70
2023-09-08T13:18:37.005Z,35.00
2023-09-08T13:21:06.328Z,34.90
2023-09-08T13:23:33.161Z,35.00
2023-09-08T13:26:02.512Z,35.00
2023-09-08T13:28:29.498Z,35.10
2023-09-08T13:30:56.481Z,35.10
2023-09-08T13:33:23.756Z,34.90
2023-09-08T13:35:50.732Z,34.90
2023-09-08T13:38:17.721Z,34.30
2023-09-08T13:40:44.975Z,35.00
2023-09-08T13:43:12.514Z,34.40
2023-09-08T13:45:39.596Z,33.90
2023-09-08T13:48:07.934Z,34.00
2023-09-08T13:50:37.304Z,34.80
2023-09-08T13:53:05.230Z,33.90
2023-09-08T13:58:03.249Z,34.40
2023-09-08T14:00:32.479Z,33.90
2023-09-08T14:03:00.435Z,34.10
2023-09-08T14:05:36.903Z,35.20
2023-09-08T14:08:08.434Z,34.50
2023-09-08T14:10:51.843Z,34.60
2023-09-08T14:13:20.668Z,34.40
2023-09-08T14:15:47.677Z,34.40
2023-09-08T14:18:15.708Z,34.40
2023-09-08T14:20:43.828Z,34.40
2023-09-08T14:23:11.133Z,34.80
2023-09-08T14:25:38.284Z,35.00
2023-09-08T14:28:07.000Z,34.30
2023-09-08T14:30:36.613Z,34.40
2023-09-08T14:33:04.388Z,35.10
2023-09-08T14:35:32.117Z,35.00
2023-09-08T14:37:59.161Z,34.80
2023-09-08T14:40:26.161Z,35.30
2023-09-08T14:42:54.821Z,34.60
2023-09-08T14:45:22.129Z,34.40
2023-09-08T14:47:49.124Z,34.90
2023-09-08T14:50:16.954Z,35.20
2023-09-08T14:52:43.860Z,35.10
2023-09-08T14:55:10.745Z,35.00
2023-09-08T14:57:37.969Z,34.80
2023-09-08T15:00:05.855Z,35.40
2023-09-08T15:02:33.138Z,36.00
2023-09-08T15:05:00.059Z,36.40
2023-09-08T15:07:27.035Z,37.10
2023-09-08T15:09:54.066Z,37.50
2023-09-08T15:12:21.028Z,37.60
2023-09-08T15:14:47.939Z,37.80
2023-09-08T15:17:14.899Z,37.30
2023-09-08T15:19:41.874Z,37.50
2023-09-08T15:22:08.915Z,37.90
2023-09-08T15:24:35.924Z,37.20
2023-09-08T15:27:03.715Z,37.60
2023-09-08T15:29:30.876Z,37.90
2023-09-08T15:31:58.547Z,38.10
2023-09-08T15:34:27.465Z,37.80
2023-09-08T15:36:54.691Z,37.70
2023-09-08T15:39:22.255Z,37.90
2023-09-08T15:41:49.296Z,37.90
2023-09-08T15:44:16.544Z,38.00
2023-09-08T15:46:43.975Z,38.10
2023-09-08T15:49:12.080Z,37.80
2023-09-08T15:51:39.182Z,37.80
2023-09-08T15:54:07.366Z,37.90
2023-09-08T15:56:34.305Z,38.40
2023-09-08T15:59:03.348Z,38.30
2023-09-08T16:01:30.380Z,38.50
2023-09-08T16:03:57.648Z,38.40
2023-09-08T16:06:25.566Z,38.50
2023-09-08T16:08:52.585Z,38.70
2023-09-08T16:11:19.377Z,38.80
2023-09-08T16:13:46.675Z,38.40
2023-09-08T16:16:15.922Z,38.20
2023-09-08T16:18:43.127Z,38.60
2023-09-08T16:21:09.954Z,38.70
2023-09-08T16:23:37.869Z,38.70
2023-09-08T16:26:05.169Z,39.00
2023-09-08T16:28:36.342Z,38.90
2023-09-08T16:31:07.657Z,39.50
2023-09-08T16:33:36.222Z,40.20
2023-09-08T16:36:03.737Z,40.30
2023-09-08T16:38:30.676Z,40.30
2023-09-08T16:40:59.135Z,40.50
2023-09-08T16:43:33.103Z,40.50
2023-09-08T16:46:00.059Z,40.50
2023-09-08T16:48:27.167Z,41.30
2023-09-08T16:50:54.142Z,40.80
2023-09-08T16:53:21.411Z,40.70
2023-09-08T16:55:48.776Z,40.80
2023-09-08T16:58:15.739Z,41.20
2023-09-08T17:00:42.646Z,41.40
2023-09-08T17:03:26.130Z,41.50
2023-09-08T17:05:53.084Z,41.90
2023-09-08T17:08:20.178Z,41.90
2023-09-08T17:10:49.121Z,41.90
2023-09-08T17:13:16.207Z,42.50
2023-09-08T17:15:43.419Z,43.10
2023-09-08T17:18:10.562Z,43.50
2023-09-08T17:20:37.629Z,43.80
2023-09-08T17:23:06.505Z,44.10
2023-09-08T17:25:33.491Z,44.60
2023-09-08T17:28:00.358Z,44.80
2023-09-08T17:30:27.198Z,45.20
2023-09-08T17:32:54.188Z,45.70
2023-09-08T17:35:21.101Z,45.80
2023-09-08T17:37:49.076Z,46.50
2023-09-08T17:40:16.127Z,46.80
2023-09-08T17:42:43.092Z,47.30
2023-09-08T17:45:10.735Z,47.90
2023-09-08T17:47:37.675Z,48.50
2023-09-08T17:50:05.109Z,48.80
2023-09-08T17:52:32.255Z,49.10
2023-09-08T17:55:02.481Z,49.40
2023-09-08T17:57:29.418Z,49.80
2023-09-08T17:59:56.635Z,49.60
2023-09-08T18:02:23.733Z,50.20
2023-09-08T18:04:51.472Z,50.90
2023-09-08T18:07:18.669Z,51.10
2023-09-08T18:09:45.732Z,51.10
2023-09-08T18:12:12.748Z,51.60
2023-09-08T18:14:39.712Z,51.90
2023-09-08T18:17:06.756Z,51.90
2023-09-08T18:19:37.085Z,52.20
2023-09-08T18:22:04.913Z,52.20
2023-09-08T18:24:33.223Z,52.70
2023-09-08T18:27:02.391Z,52.10
2023-09-08T18:29:34.580Z,52.30
2023-09-08T18:32:02.191Z,53.60
2023-09-08T18:34:29.994Z,53.90
2023-09-08T18:36:57.068Z,54.40
2023-09-08T18:39:24.831Z,54.30
2023-09-08T18:41:51.861Z,54.30
2023-09-08T18:44:18.898Z,54.50
2023-09-08T18:46:46.283Z,54.60
2023-09-08T18:49:14.485Z,54.60
2023-09-08T18:51:42.248Z,56.20
2023-09-08T18:54:09.335Z,56.00
2023-09-08T18:56:36.674Z,56.20
2023-09-08T18:59:04.049Z,56.20
2023-09-08T19:01:31.199Z,56.60
2023-09-08T19:03:58.639Z,57.10
2023-09-08T19:06:26.038Z,57.10
2023-09-08T19:08:53.268Z,57.70
2023-09-08T19:11:21.722Z,58.40
2023-09-08T19:13:48.840Z,58.60
2023-09-08T19:16:17.974Z,58.80
2023-09-08T19:18:45.110Z,59.00
2023-09-08T19:21:12.237Z,59.30
2023-09-08T19:23:39.316Z,59.40
2023-09-08T19:26:10.020Z,59.70
2023-09-08T19:28:41.174Z,60.00
2023-09-08T19:33:48.839Z,60.30
2023-09-08T19:40:02.882Z,61.20
2023-09-08T19:42:33.099Z,61.80
2023-09-08T19:45:00.157Z,62.00
2023-09-08T19:47:27.530Z,62.30
2023-09-08T19:49:54.709Z,62.70
2023-09-08T19:52:26.415Z,63.10
2023-09-08T19:54:54.139Z,63.40
2023-09-08T19:57:21.505Z,63.90
2023-09-08T19:59:50.240Z,64.30
2023-09-08T20:02:17.757Z,64.70
2023-09-08T20:04:46.646Z,64.50
2023-09-08T20:07:15.586Z,64.90
2023-09-08T20:09:42.921Z,65.00
2023-09-08T20:12:17.132Z,65.40
2023-09-08T21:19:28.217Z,74.10
2023-09-08T21:21:55.576Z,73.90
2023-09-08T21:24:23.067Z,74.00
2023-09-08T21:26:51.010Z,73.70
2023-09-08T21:29:18.177Z,74.00
2023-09-08T21:31:49.859Z,74.50
2023-09-08T21:34:19.776Z,74.20
2023-09-08T21:36:47.789Z,74.20
2023-09-08T21:39:15.337Z,74.90
2023-09-08T21:41:42.310Z,75.20
2023-09-08T21:44:09.573Z,75.50
2023-09-08T21:46:36.702Z,75.70
2023-09-08T21:49:03.972Z,76.40
2023-09-08T21:51:31.025Z,76.90
2023-09-08T21:53:58.153Z,77.50
2023-09-08T21:56:26.474Z,77.90
2023-09-08T21:58:53.443Z,77.70
2023-09-08T22:01:20.502Z,78.00
2023-09-08T22:03:47.568Z,78.00
2023-09-08T22:06:15.015Z,78.00
2023-09-08T22:08:41.964Z,78.30
2023-09-08T22:11:09.047Z,78.10
2023-09-08T22:13:37.599Z,78.10
2023-09-08T22:16:05.619Z,77.70
2023-09-08T22:18:35.940Z,77.90
2023-09-08T22:21:03.862Z,78.30
2023-09-08T22:23:34.244Z,78.90
2023-09-08T22:26:01.507Z,78.30
2023-09-08T22:28:28.506Z,78.00
2023-09-08T22:30:55.415Z,78.60
2023-09-08T22:33:22.420Z,78.60
2023-09-08T22:35:53.815Z,78.50
2023-09-08T22:38:21.042Z,78.70
2023-09-08T22:40:48.283Z,79.10
2023-09-08T22:43:15.408Z,79.60
2023-09-08T22:45:45.370Z,80.10
2023-09-08T22:48:12.457Z,80.50
2023-09-08T22:50:39.443Z,80.30
2023-09-08T22:53:08.154Z,80.20
2023-09-08T22:59:25.492Z,80.20
2023-09-08T23:01:52.453Z,81.10
2023-09-08T23:04:26.034Z,82.30
2023-09-08T23:06:52.990Z,82.30
2023-09-08T23:09:19.931Z,83.00
2023-09-08T23:11:50.330Z,83.90
2023-09-08T23:14:17.899Z,84.50
2023-09-08T23:16:45.845Z,84.50
2023-09-08T23:19:14.810Z,84.40
2023-09-08T23:21:44.898Z,84.00
2023-09-08T23:24:15.326Z,83.80
2023-09-08T23:26:42.681Z,83.20
2023-09-08T23:29:09.717Z,83.00
2023-09-08T23:31:38.700Z,83.60
2023-09-08T23:34:09.656Z,83.90
2023-09-08T23:36:36.611Z,84.30
2023-09-08T23:39:04.631Z,84.30
2023-09-08T23:41:32.754Z,84.20
2023-09-08T23:44:00.368Z,84.10
2023-09-08T23:46:27.395Z,84.00
2023-09-08T23:48:57.498Z,84.40
2023-09-08T23:51:25.006Z,84.80
2023-09-08T23:53:54.840Z,84.60
2023-09-08T23:56:21.770Z,85.00
2023-09-08T23:58:49.093Z,85.20
